createdAt,value
2023-03-07T00:00:00.279Z,970.6
2023-03-07T00:01:00.291Z,970.6
2023-03-07T00:02:00.304Z,970.6
2023-03-07T00:03:00.318Z,970.6
2023-03-07T00:04:00.354Z,970.6
2023-03-07T00:05:00.280Z,970.6
2023-03-07T00:06:00.284Z,970.4
2023-03-07T00:07:00.292Z,971
2023-03-07T00:08:00.283Z,971.4
2023-03-07T00:09:00.299Z,971.2
2023-03-07T00:10:00.331Z,971
2023-03-07T00:11:00.297Z,971
2023-03-07T00:12:00.350Z,971
2023-03-07T00:13:00.285Z,970.8
2023-03-07T00:14:00.284Z,971
2023-03-07T00:15:00.557Z,971
2023-03-07T00:16:00.572Z,971
2023-03-07T00:17:00.535Z,971.2
2023-03-07T00:18:00.557Z,971
2023-03-07T00:19:00.410Z,971
2023-03-07T00:20:00.747Z,971.4
2023-03-07T00:21:00.426Z,971.2
2023-03-07T00:22:00.487Z,971.2
2023-03-07T00:23:00.289Z,971.2
2023-03-07T00:24:00.464Z,971.2
2023-03-07T00:25:00.633Z,971.4
2023-03-07T00:26:00.351Z,971.4
2023-03-07T00:27:00.301Z,971.4
2023-03-07T00:28:00.344Z,971.2
2023-03-07T00:29:00.315Z,971.4
2023-03-07T00:30:00.355Z,971.4
2023-03-07T00:31:00.329Z,971.4
2023-03-07T00:32:00.309Z,971.4
2023-03-07T00:33:00.299Z,971.4
2023-03-07T00:34:00.323Z,971.4
2023-03-07T00:35:00.337Z,971.4
2023-03-07T00:36:00.398Z,971.7
2023-03-07T00:37:00.320Z,971.9
2023-03-07T00:38:00.310Z,971.7
2023-03-07T00:39:00.327Z,971.4
2023-03-07T00:40:00.373Z,971.9
2023-03-07T00:41:00.360Z,971.9
2023-03-07T00:42:00.330Z,971.9
2023-03-07T00:43:00.308Z,971.9
2023-03-07T00:44:00.332Z,971.9
2023-03-07T00:45:00.325Z,971.9
2023-03-07T00:46:00.414Z,971.7
2023-03-07T00:47:00.311Z,971.7
2023-03-07T00:48:00.319Z,971.9
2023-03-07T00:49:00.336Z,971.9
2023-03-07T00:50:00.360Z,972.3
2023-03-07T00:51:00.319Z,971.9
2023-03-07T00:52:00.319Z,972.1
2023-03-07T00:53:00.387Z,971.9
2023-03-07T00:54:00.340Z,971.9
2023-03-07T00:55:00.344Z,971.9
2023-03-07T00:56:00.319Z,971.9
2023-03-07T00:57:00.367Z,972.1
2023-03-07T00:58:00.322Z,971.9
2023-03-07T00:59:00.347Z,972.1
2023-03-07T01:00:00.415Z,971.9
2023-03-07T01:01:00.424Z,971.9
2023-03-07T01:02:00.360Z,971.9
2023-03-07T01:03:00.379Z,971.9
2023-03-07T01:04:00.375Z,972.3
2023-03-07T01:05:00.359Z,971.9
2023-03-07T01:06:01.597Z,971.9
2023-03-07T01:07:00.419Z,972.1
2023-03-07T01:08:00.337Z,972.3
2023-03-07T01:09:00.475Z,972.3
2023-03-07T01:10:00.402Z,972.1
2023-03-07T01:11:00.346Z,972.1
2023-03-07T01:12:00.357Z,972.1
2023-03-07T01:13:00.371Z,971.9
2023-03-07T01:14:00.368Z,972.1
2023-03-07T01:15:00.366Z,972.3
2023-03-07T01:16:00.358Z,972.3
2023-03-07T01:17:00.336Z,972.3
2023-03-07T01:18:00.338Z,972.3
2023-03-07T01:19:00.381Z,972.3
2023-03-07T01:20:00.415Z,972.3
2023-03-07T01:21:00.382Z,972.3
2023-03-07T01:22:00.360Z,972.1
2023-03-07T01:23:00.350Z,972.3
2023-03-07T01:24:00.366Z,972.3
2023-03-07T01:25:00.365Z,972.3
2023-03-07T01:26:00.369Z,972.3
2023-03-07T01:27:00.357Z,972.3
2023-03-07T01:28:00.365Z,972.3
2023-03-07T01:29:00.373Z,972.3
2023-03-07T01:30:00.405Z,972.1
2023-03-07T01:31:00.369Z,971.9
2023-03-07T01:32:00.410Z,971.9
2023-03-07T01:33:00.365Z,971.7
2023-03-07T01:34:00.453Z,971.9
2023-03-07T01:35:00.365Z,972.3
2023-03-07T01:36:00.544Z,972.1
2023-03-07T01:37:00.367Z,971.7
2023-03-07T01:38:00.356Z,971.7
2023-03-07T01:39:00.385Z,971.7
2023-03-07T01:40:00.375Z,970.8
2023-03-07T01:41:00.372Z,970.6
2023-03-07T01:42:00.374Z,970.8
2023-03-07T01:43:00.394Z,971.4
2023-03-07T01:44:00.426Z,971
2023-03-07T01:45:00.418Z,971.4
2023-03-07T01:46:00.418Z,971
2023-03-07T01:47:00.785Z,970.6
2023-03-07T01:48:00.414Z,970.6
2023-03-07T01:49:00.384Z,970.1
2023-03-07T01:50:00.522Z,970.4
2023-03-07T01:51:00.376Z,970.4
2023-03-07T01:52:00.368Z,970.6
2023-03-07T01:53:00.420Z,970.6
2023-03-07T01:54:00.391Z,970.6
2023-03-07T01:55:00.384Z,970.6
2023-03-07T01:56:00.379Z,970.4
2023-03-07T01:57:00.392Z,970.4
2023-03-07T01:58:00.410Z,970.6
2023-03-07T01:59:00.390Z,970.8
2023-03-07T02:00:00.422Z,970.6
2023-03-07T02:01:00.414Z,971
2023-03-07T02:02:00.399Z,971
2023-03-07T02:03:00.468Z,971
2023-03-07T02:04:00.459Z,971.2
2023-03-07T02:05:00.388Z,971
2023-03-07T02:06:00.390Z,971
2023-03-07T02:07:00.407Z,971
2023-03-07T02:08:00.398Z,971
2023-03-07T02:09:00.421Z,971
2023-03-07T02:10:00.405Z,971
2023-03-07T02:11:00.412Z,971
2023-03-07T02:12:00.395Z,971
2023-03-07T02:13:00.404Z,971
2023-03-07T02:14:00.403Z,971.2
2023-03-07T02:15:00.381Z,971.2
2023-03-07T02:16:00.404Z,971.2
2023-03-07T02:17:00.396Z,971.2
2023-03-07T02:18:00.409Z,971.2
2023-03-07T02:19:00.411Z,971.2
2023-03-07T02:20:00.403Z,971.4
2023-03-07T02:21:00.399Z,971.4
2023-03-07T02:22:00.401Z,971
2023-03-07T02:23:00.431Z,971
2023-03-07T02:24:00.413Z,971.2
2023-03-07T02:25:00.420Z,971.4
2023-03-07T02:26:00.424Z,971.2
2023-03-07T02:27:00.407Z,971
2023-03-07T02:28:00.446Z,971
2023-03-07T02:29:00.416Z,971.2
2023-03-07T02:30:00.457Z,971.4
2023-03-07T02:31:00.481Z,971
2023-03-07T02:32:00.408Z,971.4
2023-03-07T02:33:00.448Z,971.4
2023-03-07T02:34:00.438Z,971.4
2023-03-07T02:35:00.427Z,971.4
2023-03-07T02:36:00.472Z,971.4
2023-03-07T02:37:00.411Z,971.4
2023-03-07T02:38:00.414Z,971.4
2023-03-07T02:39:00.435Z,971.4
2023-03-07T02:40:00.448Z,971.4
2023-03-07T02:41:00.422Z,971.4
2023-03-07T02:42:00.418Z,971.4
2023-03-07T02:43:00.431Z,971.4
2023-03-07T02:44:00.422Z,971.7
2023-03-07T02:45:00.465Z,971.4
2023-03-07T02:46:00.479Z,971.9
2023-03-07T02:47:00.418Z,971.9
2023-03-07T02:48:00.426Z,971.9
2023-03-07T02:49:00.446Z,971.9
2023-03-07T02:50:00.470Z,971.7
2023-03-07T02:51:00.427Z,971.9
2023-03-07T02:52:00.458Z,971.7
2023-03-07T02:53:00.438Z,971.9
2023-03-07T02:54:00.448Z,971.9
2023-03-07T02:55:00.440Z,972.1
2023-03-07T02:56:00.457Z,971.9
2023-03-07T02:57:00.447Z,971.9
2023-03-07T02:58:00.456Z,971.9
2023-03-07T02:59:00.464Z,971.9
2023-03-07T03:00:00.445Z,972.3
2023-03-07T03:01:00.916Z,972.1
2023-03-07T03:02:00.928Z,971.9
2023-03-07T03:03:00.905Z,971.9
2023-03-07T03:04:00.932Z,972.1
2023-03-07T03:05:01.010Z,971.9
2023-03-07T03:06:00.919Z,971.9
2023-03-07T03:07:00.936Z,972.1
2023-03-07T03:08:00.922Z,972.3
2023-03-07T03:09:00.929Z,972.3
2023-03-07T03:10:01.346Z,972.3
2023-03-07T03:11:00.919Z,972.3
2023-03-07T03:12:01.397Z,972.3
2023-03-07T03:13:01.176Z,972.3
2023-03-07T03:14:00.999Z,972.5
2023-03-07T03:15:01.029Z,972.7
2023-03-07T03:16:00.971Z,972.7
2023-03-07T03:17:00.979Z,972.7
2023-03-07T03:18:00.988Z,972.7
2023-03-07T03:19:01.052Z,972.7
2023-03-07T03:20:01.357Z,972.7
2023-03-07T03:21:01.182Z,972.7
2023-03-07T03:22:01.163Z,973
2023-03-07T03:23:01.214Z,973.2
2023-03-07T03:24:01.091Z,973.2
2023-03-07T03:25:01.173Z,973.2
2023-03-07T03:26:01.246Z,973.2
2023-03-07T03:27:01.101Z,973.2
2023-03-07T03:28:01.010Z,973.2
2023-03-07T03:29:00.971Z,973.4
2023-03-07T03:30:01.135Z,973.6
2023-03-07T03:31:01.074Z,973.4
2023-03-07T03:32:00.989Z,973.6
2023-03-07T03:33:00.981Z,973.4
2023-03-07T03:34:01.018Z,973.6
2023-03-07T03:35:01.013Z,973.8
2023-03-07T03:36:00.975Z,973.6
2023-03-07T03:37:00.975Z,973.6
2023-03-07T03:38:00.993Z,973.6
2023-03-07T03:39:00.979Z,973.6
2023-03-07T03:40:01.146Z,974
2023-03-07T03:41:00.958Z,974
2023-03-07T03:42:00.986Z,974
2023-03-07T03:43:00.988Z,973.8
2023-03-07T03:44:00.964Z,973.8
2023-03-07T03:45:01.056Z,974
2023-03-07T03:46:00.968Z,974
2023-03-07T03:47:01.115Z,974
2023-03-07T03:48:00.991Z,974
2023-03-07T03:49:00.987Z,974.3
2023-03-07T03:50:01.029Z,974.3
2023-03-07T03:51:00.978Z,974.3
2023-03-07T03:52:00.991Z,974.5
2023-03-07T03:53:01.003Z,974.5
2023-03-07T03:54:01.079Z,974.5
2023-03-07T03:55:01.004Z,974.5
2023-03-07T03:56:00.975Z,974.5
2023-03-07T03:57:00.995Z,974.7
2023-03-07T03:58:00.977Z,974.7
2023-03-07T03:59:00.973Z,974.7
2023-03-07T04:00:01.213Z,974.9
2023-03-07T04:01:00.991Z,974.9
2023-03-07T04:02:01.107Z,974.7
2023-03-07T04:03:01.090Z,974.9
2023-03-07T04:04:01.002Z,974.7
2023-03-07T04:05:01.001Z,974.7
2023-03-07T04:06:00.993Z,974.7
2023-03-07T04:07:01.022Z,974.9
2023-03-07T04:08:01.319Z,974.9
2023-03-07T04:09:01.000Z,974.9
2023-03-07T04:10:01.065Z,974.9
2023-03-07T04:11:00.997Z,974.9
2023-03-07T04:12:01.001Z,974.9
2023-03-07T04:13:01.006Z,974.9
2023-03-07T04:14:01.001Z,974.7
2023-03-07T04:15:01.001Z,974.9
2023-03-07T04:16:01.036Z,974.7
2023-03-07T04:17:01.002Z,974.9
2023-03-07T04:18:01.010Z,974.9
2023-03-07T04:19:01.004Z,974.9
2023-03-07T04:20:01.009Z,974.9
2023-03-07T04:21:01.007Z,974.9
2023-03-07T04:22:01.000Z,974.7
2023-03-07T04:23:01.043Z,974.9
2023-03-07T04:24:00.995Z,974.9
2023-03-07T04:25:01.006Z,974.9
2023-03-07T04:26:01.077Z,975.1
2023-03-07T04:27:01.004Z,974.9
2023-03-07T04:28:01.011Z,974.9
2023-03-07T04:29:01.013Z,974.9
2023-03-07T04:30:01.063Z,975.1
2023-03-07T04:31:01.015Z,975.4
2023-03-07T04:32:01.034Z,975.4
2023-03-07T04:33:01.021Z,975.4
2023-03-07T04:34:01.045Z,975.4
2023-03-07T04:35:01.018Z,975.4
2023-03-07T04:36:01.079Z,975.1
2023-03-07T04:37:01.009Z,975.1
2023-03-07T04:38:01.013Z,974.9
2023-03-07T04:39:01.020Z,974.9
2023-03-07T04:40:01.025Z,974.9
2023-03-07T04:41:01.036Z,975.1
2023-03-07T04:42:01.023Z,974.9
2023-03-07T04:43:01.020Z,974.9
2023-03-07T04:44:01.030Z,975.4
2023-03-07T04:45:01.970Z,975.4
2023-03-07T04:46:01.127Z,975.6
2023-03-07T04:47:01.022Z,975.6
2023-03-07T04:48:01.046Z,975.8
2023-03-07T04:49:01.037Z,975.8
2023-03-07T04:50:01.046Z,975.6
2023-03-07T04:51:01.039Z,975.4
2023-03-07T04:52:01.048Z,975.6
2023-03-07T04:53:01.053Z,975.6
2023-03-07T04:54:01.053Z,975.4
2023-03-07T04:55:01.039Z,975.8
2023-03-07T04:56:01.060Z,975.8
2023-03-07T04:57:01.053Z,975.8
2023-03-07T04:58:01.036Z,975.8
2023-03-07T04:59:01.043Z,975.8
2023-03-07T05:00:01.133Z,975.6
2023-03-07T05:01:01.138Z,975.8
2023-03-07T05:02:01.043Z,975.8
2023-03-07T05:03:01.047Z,975.6
2023-03-07T05:04:01.053Z,975.8
2023-03-07T05:05:01.037Z,975.6
2023-03-07T05:06:01.070Z,975.6
2023-03-07T05:07:01.051Z,975.6
2023-03-07T05:08:01.059Z,975.8
2023-03-07T05:09:01.053Z,975.4
2023-03-07T05:10:01.166Z,975.8
2023-03-07T05:11:01.071Z,975.8
2023-03-07T05:12:01.073Z,975.4
2023-03-07T05:13:01.087Z,975.8
2023-03-07T05:14:01.052Z,975.8
2023-03-07T05:15:01.080Z,975.8
2023-03-07T05:16:01.117Z,975.8
2023-03-07T05:17:01.049Z,976
2023-03-07T05:18:01.056Z,976
2023-03-07T05:19:01.080Z,976
2023-03-07T05:20:01.062Z,976.2
2023-03-07T05:21:01.070Z,976.2
2023-03-07T05:22:01.076Z,976.2
2023-03-07T05:23:01.071Z,976
2023-03-07T05:24:01.051Z,976.2
2023-03-07T05:25:01.046Z,976.2
2023-03-07T05:26:01.090Z,976.2
2023-03-07T05:27:01.070Z,976.2
2023-03-07T05:28:01.069Z,976.2
2023-03-07T05:29:01.080Z,976.4
2023-03-07T05:30:01.097Z,976.7
2023-03-07T05:31:01.202Z,976.9
2023-03-07T05:32:01.066Z,976.7
2023-03-07T05:33:01.077Z,976.7
2023-03-07T05:34:01.099Z,976.7
2023-03-07T05:35:01.075Z,976.7
2023-03-07T05:36:01.155Z,976.7
2023-03-07T05:37:01.065Z,976.7
2023-03-07T05:38:01.092Z,976.9
2023-03-07T05:39:01.060Z,976.9
2023-03-07T05:40:01.058Z,976.9
2023-03-07T05:41:01.082Z,976.9
2023-03-07T05:42:01.096Z,976.9
2023-03-07T05:43:01.085Z,977.1
2023-03-07T05:44:01.091Z,977.1
2023-03-07T05:45:00.344Z,977.1
2023-03-07T05:46:00.406Z,977.1
2023-03-07T05:47:00.335Z,977.5
2023-03-07T05:48:00.314Z,977.7
2023-03-07T05:49:00.326Z,977.7
2023-03-07T05:50:00.447Z,978
2023-03-07T05:51:00.363Z,978
2023-03-07T05:52:00.340Z,978
2023-03-07T05:53:00.350Z,978
2023-03-07T05:54:00.337Z,978
2023-03-07T05:55:00.406Z,978.4
2023-03-07T05:56:00.353Z,978.8
2023-03-07T05:57:00.345Z,978.8
2023-03-07T05:58:00.342Z,978.8
2023-03-07T05:59:00.348Z,978.8
2023-03-07T06:00:00.397Z,978.8
2023-03-07T06:01:00.342Z,978.8
2023-03-07T06:02:00.373Z,978.8
2023-03-07T06:03:00.413Z,978.6
2023-03-07T06:04:00.371Z,979
2023-03-07T06:05:00.395Z,979
2023-03-07T06:06:00.345Z,978.8
2023-03-07T06:07:00.355Z,978.8
2023-03-07T06:08:00.365Z,978.8
2023-03-07T06:09:00.344Z,978.8
2023-03-07T06:10:00.471Z,978.8
2023-03-07T06:11:00.359Z,978.8
2023-03-07T06:12:00.366Z,978.6
2023-03-07T06:13:00.374Z,978.8
2023-03-07T06:14:00.367Z,978.6
2023-03-07T06:15:00.379Z,978.8
2023-03-07T06:16:00.444Z,978.4
2023-03-07T06:17:00.370Z,978.4
2023-03-07T06:18:00.343Z,978.6
2023-03-07T06:19:00.347Z,978.8
2023-03-07T06:20:00.580Z,978.8
2023-03-07T06:21:00.477Z,978.8
2023-03-07T06:22:00.546Z,979
2023-03-07T06:23:00.587Z,978.8
2023-03-07T06:24:00.662Z,978.8
2023-03-07T06:25:01.553Z,978.4
2023-03-07T06:26:00.610Z,978.4
2023-03-07T06:27:00.678Z,978.8
2023-03-07T06:28:00.556Z,978.4
2023-03-07T06:29:00.666Z,978.8
2023-03-07T06:30:01.107Z,978.8
2023-03-07T06:31:00.686Z,978.8
2023-03-07T06:32:00.628Z,978.6
2023-03-07T06:33:00.598Z,978.4
2023-03-07T06:34:00.664Z,978.6
2023-03-07T06:35:00.723Z,978.4
2023-03-07T06:36:00.721Z,978.4
2023-03-07T06:37:00.641Z,978.4
2023-03-07T06:38:00.610Z,978
2023-03-07T06:39:00.621Z,978.2
2023-03-07T06:40:00.540Z,978
2023-03-07T06:41:00.642Z,978
2023-03-07T06:42:00.609Z,978
2023-03-07T06:43:00.483Z,978
2023-03-07T06:44:00.627Z,977.5
2023-03-07T06:45:00.682Z,977.5
2023-03-07T06:46:00.499Z,977.5
2023-03-07T06:47:00.396Z,977.1
2023-03-07T06:48:00.417Z,977.5
2023-03-07T06:49:00.403Z,977.5
2023-03-07T06:50:00.667Z,977.5
2023-03-07T06:51:00.430Z,977.3
2023-03-07T06:52:00.423Z,977.1
2023-03-07T06:53:00.390Z,977.3
2023-03-07T06:54:00.396Z,977.3
2023-03-07T06:55:00.410Z,977.1
2023-03-07T06:56:00.402Z,977.3
2023-03-07T06:57:00.451Z,977.3
2023-03-07T06:58:00.403Z,977.3
2023-03-07T06:59:00.390Z,977.1
2023-03-07T07:00:00.606Z,977.1
2023-03-07T07:01:00.401Z,977.1
2023-03-07T07:02:00.532Z,977.1
2023-03-07T07:03:00.550Z,977.1
2023-03-07T07:04:00.398Z,976.7
2023-03-07T07:05:01.377Z,977.1
2023-03-07T07:06:00.432Z,977.1
2023-03-07T07:07:00.419Z,977.1
2023-03-07T07:08:00.419Z,977.1
2023-03-07T07:09:00.441Z,976.9
2023-03-07T07:10:00.432Z,976.7
2023-03-07T07:11:00.409Z,976.7
2023-03-07T07:12:00.410Z,976.4
2023-03-07T07:13:00.949Z,976.4
2023-03-07T07:14:00.394Z,976.4
2023-03-07T07:15:00.413Z,976.2
2023-03-07T07:16:00.424Z,976.2
2023-03-07T07:17:00.423Z,976.2
2023-03-07T07:18:00.416Z,976.2
2023-03-07T07:19:00.409Z,975.8
2023-03-07T07:20:00.484Z,975.8
2023-03-07T07:21:00.407Z,975.8
2023-03-07T07:22:00.413Z,975.8
2023-03-07T07:23:00.428Z,975.8
2023-03-07T07:24:00.416Z,975.4
2023-03-07T07:25:00.419Z,975.4
2023-03-07T07:26:00.426Z,975.6
2023-03-07T07:27:00.417Z,975.1
2023-03-07T07:28:00.458Z,974.9
2023-03-07T07:29:00.452Z,974.9
2023-03-07T07:30:00.513Z,975.4
2023-03-07T07:31:00.437Z,975.4
2023-03-07T07:32:00.583Z,975.1
2023-03-07T07:33:00.634Z,974.9
2023-03-07T07:34:00.422Z,974.7
2023-03-07T07:35:00.522Z,974.5
2023-03-07T07:36:00.520Z,974.5
2023-03-07T07:37:00.431Z,974.3
2023-03-07T07:38:00.444Z,974.5
2023-03-07T07:39:00.435Z,974
2023-03-07T07:40:00.507Z,974
2023-03-07T07:41:00.446Z,974.5
2023-03-07T07:42:00.447Z,974
2023-03-07T07:43:00.450Z,974
2023-03-07T07:44:00.427Z,974
2023-03-07T07:45:00.535Z,974.3
2023-03-07T07:46:00.468Z,973.8
2023-03-07T07:47:00.484Z,973.6
2023-03-07T07:48:00.452Z,973.6
2023-03-07T07:49:00.447Z,973.2
2023-03-07T07:50:00.495Z,973
2023-03-07T07:51:00.449Z,973.2
2023-03-07T07:52:00.437Z,973.2
2023-03-07T07:53:00.453Z,973.2
2023-03-07T07:54:00.457Z,973.4
2023-03-07T07:55:00.536Z,973.2
2023-03-07T07:56:00.473Z,972.7
2023-03-07T07:57:00.458Z,972.7
2023-03-07T07:58:00.453Z,972.7
2023-03-07T07:59:00.473Z,972.7
2023-03-07T08:00:00.517Z,972.5
2023-03-07T08:01:00.460Z,972.3
2023-03-07T08:02:00.491Z,972.3
2023-03-07T08:03:00.459Z,972.3
2023-03-07T08:04:00.443Z,972.3
2023-03-07T08:05:00.452Z,972.1
2023-03-07T08:06:00.469Z,972.1
2023-03-07T08:07:00.544Z,971.9
2023-03-07T08:08:00.500Z,971.9
2023-03-07T08:09:00.475Z,971.9
2023-03-07T08:10:00.457Z,971.9
2023-03-07T08:11:00.480Z,971.4
2023-03-07T08:12:00.474Z,971.9
2023-03-07T08:13:00.475Z,971.9
2023-03-07T08:14:00.485Z,971.9
2023-03-07T08:15:00.506Z,971.4
2023-03-07T08:16:00.500Z,971.4
2023-03-07T08:17:00.462Z,971.4
2023-03-07T08:18:00.476Z,971
2023-03-07T08:19:00.465Z,971
2023-03-07T08:20:01.594Z,971
2023-03-07T08:21:00.494Z,970.6
2023-03-07T08:22:00.478Z,970.6
2023-03-07T08:23:00.511Z,970.6
2023-03-07T08:24:00.506Z,970.1
2023-03-07T08:25:00.472Z,970.1
2023-03-07T08:26:00.493Z,969.9
2023-03-07T08:27:00.468Z,969.7
2023-03-07T08:28:00.478Z,969.7
2023-03-07T08:29:00.494Z,969.7
2023-03-07T08:30:00.484Z,969.9
2023-03-07T08:31:00.526Z,969.3
2023-03-07T08:32:00.481Z,969.5
2023-03-07T08:33:00.482Z,969.3
2023-03-07T08:34:00.498Z,969
2023-03-07T08:35:00.492Z,969.3
2023-03-07T08:36:00.554Z,968.8
2023-03-07T08:37:00.480Z,969.3
2023-03-07T08:38:00.574Z,969
2023-03-07T08:39:00.514Z,968.8
2023-03-07T08:40:00.509Z,968.8
2023-03-07T08:41:00.508Z,968.8
2023-03-07T08:42:00.503Z,968.8
2023-03-07T08:43:00.501Z,968.8
2023-03-07T08:44:00.494Z,968.4
2023-03-07T08:45:00.511Z,968.8
2023-03-07T08:46:00.592Z,968.4
2023-03-07T08:47:00.501Z,968.4
2023-03-07T08:48:00.486Z,968.2
2023-03-07T08:49:00.504Z,968
2023-03-07T08:50:00.510Z,967.5
2023-03-07T08:51:00.514Z,967.7
2023-03-07T08:52:00.496Z,967.7
2023-03-07T08:53:00.499Z,968
2023-03-07T08:54:00.510Z,967.5
2023-03-07T08:55:00.530Z,967.3
2023-03-07T08:56:00.505Z,967.1
2023-03-07T08:57:00.519Z,966.9
2023-03-07T08:58:00.493Z,966.9
2023-03-07T08:59:00.507Z,966.7
2023-03-07T09:00:00.525Z,966.9
2023-03-07T09:01:00.499Z,966.9
2023-03-07T09:02:00.564Z,966.7
2023-03-07T09:03:00.500Z,967.3
2023-03-07T09:04:00.502Z,967.1
2023-03-07T09:05:00.627Z,966.7
2023-03-07T09:06:00.508Z,966.2
2023-03-07T09:07:01.708Z,966.2
2023-03-07T09:08:00.562Z,966.7
2023-03-07T09:09:00.550Z,966.7
2023-03-07T09:10:00.524Z,966.7
2023-03-07T09:11:00.508Z,966.7
2023-03-07T09:12:00.521Z,966.2
2023-03-07T09:13:00.531Z,966.2
2023-03-07T09:14:00.506Z,966.2
2023-03-07T09:15:00.554Z,965.8
2023-03-07T09:16:00.574Z,965.8
2023-03-07T09:17:00.529Z,966
2023-03-07T09:18:00.537Z,966.2
2023-03-07T09:19:00.520Z,965.8
2023-03-07T09:20:00.553Z,965.8
2023-03-07T09:21:00.532Z,965.8
2023-03-07T09:22:00.590Z,965.8
2023-03-07T09:23:00.533Z,965.6
2023-03-07T09:24:00.546Z,965.4
2023-03-07T09:25:00.543Z,965.1
2023-03-07T09:26:00.539Z,964.7
2023-03-07T09:27:00.543Z,964.5
2023-03-07T09:28:00.532Z,964.9
2023-03-07T09:29:00.570Z,965.4
2023-03-07T09:30:00.578Z,964.9
2023-03-07T09:31:00.574Z,964.5
2023-03-07T09:32:00.557Z,963.6
2023-03-07T09:33:00.557Z,963.2
2023-03-07T09:34:00.554Z,963.2
2023-03-07T09:35:00.558Z,963.4
2023-03-07T09:36:00.573Z,963.8
2023-03-07T09:37:00.548Z,963.6
2023-03-07T09:38:00.555Z,962.3
2023-03-07T09:39:00.564Z,963.2
2023-03-07T09:40:00.580Z,963
2023-03-07T09:41:00.564Z,962.7
2023-03-07T09:42:00.564Z,963.6
2023-03-07T09:43:00.547Z,963.2
2023-03-07T09:44:00.574Z,962.7
2023-03-07T09:45:00.570Z,963.6
2023-03-07T09:46:00.585Z,963.4
2023-03-07T09:47:00.560Z,963.6
2023-03-07T09:48:00.568Z,963.2
2023-03-07T09:49:00.584Z,963.6
2023-03-07T09:50:00.563Z,963.6
2023-03-07T09:51:07.602Z,963.4
2023-03-07T09:52:00.564Z,963
2023-03-07T09:53:00.568Z,963.2
2023-03-07T09:54:00.618Z,962.1
2023-03-07T09:55:00.595Z,962.3
2023-03-07T09:56:00.585Z,962.5
2023-03-07T09:57:00.603Z,961.9
2023-03-07T09:58:00.591Z,962.1
2023-03-07T09:59:00.561Z,962.3
2023-03-07T10:00:00.624Z,961.9
2023-03-07T10:01:00.625Z,962.3
2023-03-07T10:02:00.570Z,962.7
2023-03-07T10:03:00.586Z,961.4
2023-03-07T10:04:00.736Z,961
2023-03-07T10:05:00.567Z,961.9
2023-03-07T10:06:00.596Z,961.4
2023-03-07T10:07:00.570Z,960.6
2023-03-07T10:08:00.570Z,961
2023-03-07T10:09:00.831Z,961.4
2023-03-07T10:10:00.889Z,960.1
2023-03-07T10:11:00.821Z,960.1
2023-03-07T10:12:00.935Z,959.9
2023-03-07T10:13:00.581Z,960.1
2023-03-07T10:14:00.585Z,960.8
2023-03-07T10:15:00.709Z,961
2023-03-07T10:16:00.812Z,961
2023-03-07T10:17:00.627Z,960.6
2023-03-07T10:18:02.238Z,960.1
2023-03-07T10:19:00.796Z,960.6
2023-03-07T10:20:00.863Z,960.6
2023-03-07T10:21:00.615Z,960.6
2023-03-07T10:22:00.828Z,959.9
2023-03-07T10:23:00.598Z,961
2023-03-07T10:24:00.618Z,960.1
2023-03-07T10:25:00.616Z,960.1
2023-03-07T10:26:00.674Z,959.9
2023-03-07T10:27:00.798Z,959.3
2023-03-07T10:28:00.597Z,958.8
2023-03-07T10:29:00.593Z,958
2023-03-07T10:30:00.611Z,958
2023-03-07T10:31:00.620Z,958.4
2023-03-07T10:32:00.735Z,958
2023-03-07T10:33:01.449Z,958.4
2023-03-07T10:34:00.620Z,958.4
2023-03-07T10:35:00.624Z,958.4
2023-03-07T10:36:00.765Z,958.2
2023-03-07T10:37:08.674Z,957.5
2023-03-07T10:38:00.629Z,957.7
2023-03-07T10:39:00.593Z,958.8
2023-03-07T10:40:00.619Z,959
2023-03-07T10:41:00.613Z,958.4
2023-03-07T10:42:00.602Z,958.4
2023-03-07T10:43:00.597Z,957.3
2023-03-07T10:44:00.604Z,958
2023-03-07T10:45:00.619Z,957.5
2023-03-07T10:46:00.703Z,957.1
2023-03-07T10:47:00.699Z,958.4
2023-03-07T10:48:00.629Z,957.3
2023-03-07T10:49:00.633Z,958
2023-03-07T10:50:00.678Z,957.5
2023-03-07T10:51:00.637Z,957.5
2023-03-07T10:52:00.625Z,958.4
2023-03-07T10:53:00.645Z,958.4
2023-03-07T10:54:00.620Z,957.5
2023-03-07T10:55:00.638Z,957.7
2023-03-07T10:56:00.666Z,957.5
2023-03-07T10:57:00.681Z,957.5
2023-03-07T10:58:00.631Z,956.7
2023-03-07T10:59:00.680Z,956.2
2023-03-07T11:00:00.716Z,956.2
2023-03-07T11:01:00.666Z,957.1
2023-03-07T11:02:00.637Z,957.1
2023-03-07T11:03:00.624Z,957.1
2023-03-07T11:04:00.660Z,956.7
2023-03-07T11:05:00.733Z,956.2
2023-03-07T11:06:00.644Z,956.2
2023-03-07T11:07:00.667Z,955.8
2023-03-07T11:08:00.642Z,955.6
2023-03-07T11:09:01.323Z,955.8
2023-03-07T11:10:00.648Z,956.2
2023-03-07T11:11:00.652Z,956.2
2023-03-07T11:12:00.633Z,956.4
2023-03-07T11:13:00.674Z,956.2
2023-03-07T11:14:00.648Z,956
2023-03-07T11:15:00.643Z,956.2
2023-03-07T11:16:10.970Z,956.2
2023-03-07T11:17:00.628Z,955.8
2023-03-07T11:18:00.649Z,955.8
2023-03-07T11:19:00.655Z,956.2
2023-03-07T11:20:00.658Z,956
2023-03-07T11:21:00.632Z,956.7
2023-03-07T11:22:00.648Z,956.2
2023-03-07T11:23:00.642Z,956
2023-03-07T11:24:00.786Z,955.8
2023-03-07T11:25:00.680Z,956
2023-03-07T11:26:00.637Z,955.8
2023-03-07T11:27:00.659Z,954.9
2023-03-07T11:28:00.650Z,955.8
2023-03-07T11:29:00.664Z,955.4
2023-03-07T11:30:00.659Z,955.1
2023-03-07T11:31:00.688Z,954.5
2023-03-07T11:32:00.652Z,954.5
2023-03-07T11:33:00.671Z,955.4
2023-03-07T11:34:00.680Z,954.7
2023-03-07T11:35:00.685Z,954.5
2023-03-07T11:36:00.688Z,954.5
2023-03-07T11:37:00.650Z,954.7
2023-03-07T11:38:00.648Z,954
2023-03-07T11:39:00.678Z,954
2023-03-07T11:40:00.681Z,954.5
2023-03-07T11:41:00.666Z,954
2023-03-07T11:42:00.680Z,953.6
2023-03-07T11:43:00.657Z,954.9
2023-03-07T11:44:00.664Z,953.8
2023-03-07T11:45:00.660Z,954.5
2023-03-07T11:46:00.616Z,953
2023-03-07T11:47:00.593Z,952.7
2023-03-07T11:48:00.555Z,952.5
2023-03-07T11:49:00.536Z,953
2023-03-07T11:50:00.490Z,953
2023-03-07T11:51:00.477Z,953.2
2023-03-07T11:52:00.473Z,952.3
2023-03-07T11:53:00.403Z,952.3
2023-03-07T11:54:00.374Z,952.7
2023-03-07T11:55:00.369Z,953.6
2023-03-07T11:56:00.337Z,953.6
2023-03-07T11:57:00.318Z,953.2
2023-03-07T11:58:00.265Z,952.5
2023-03-07T11:59:00.281Z,951.9
2023-03-07T12:00:00.274Z,952.3
2023-03-07T12:01:00.281Z,952.3
2023-03-07T12:02:00.326Z,953
2023-03-07T12:03:00.586Z,952.3
2023-03-07T12:04:00.261Z,952.3
2023-03-07T12:05:00.263Z,952.1
2023-03-07T12:06:00.406Z,951.4
2023-03-07T12:07:00.284Z,951.4
2023-03-07T12:08:00.271Z,951.4
2023-03-07T12:09:00.288Z,951
2023-03-07T12:10:00.281Z,950.6
2023-03-07T12:11:00.286Z,950.6
2023-03-07T12:12:00.273Z,951.2
2023-03-07T12:13:00.269Z,950.6
2023-03-07T12:14:00.828Z,951
2023-03-07T12:15:00.315Z,951
2023-03-07T12:16:00.326Z,950.6
2023-03-07T12:17:00.276Z,951.7
2023-03-07T12:18:00.289Z,951
2023-03-07T12:19:00.277Z,951
2023-03-07T12:20:00.298Z,951.4
2023-03-07T12:21:00.301Z,952.3
2023-03-07T12:22:00.280Z,951.9
2023-03-07T12:23:00.297Z,951.7
2023-03-07T12:24:00.325Z,951.9
2023-03-07T12:25:00.334Z,951
2023-03-07T12:26:00.287Z,951
2023-03-07T12:27:00.300Z,951.4
2023-03-07T12:28:00.300Z,951.4
2023-03-07T12:29:00.286Z,951
2023-03-07T12:30:00.332Z,951.4
2023-03-07T12:31:00.311Z,951.4
2023-03-07T12:32:00.491Z,951.9
2023-03-07T12:33:00.482Z,951.2
2023-03-07T12:34:00.318Z,950.8
2023-03-07T12:35:00.301Z,950.8
2023-03-07T12:36:00.391Z,951.2
2023-03-07T12:37:00.310Z,950.8
2023-03-07T12:38:00.309Z,950.6
2023-03-07T12:39:00.322Z,951.2
2023-03-07T12:40:00.330Z,951
2023-03-07T12:41:00.318Z,951
2023-03-07T12:42:00.305Z,950.6
2023-03-07T12:43:00.329Z,950.6
2023-03-07T12:44:00.319Z,951.4
2023-03-07T12:45:00.341Z,950.6
2023-03-07T12:46:00.479Z,950.8
2023-03-07T12:47:00.334Z,951
2023-03-07T12:48:00.320Z,951.7
2023-03-07T12:49:00.336Z,951.4
2023-03-07T12:50:00.346Z,952.7
2023-03-07T12:51:00.350Z,952.3
2023-03-07T12:52:00.325Z,951.4
2023-03-07T12:53:00.336Z,951.4
2023-03-07T12:54:00.350Z,950.6
2023-03-07T12:55:00.333Z,950.6
2023-03-07T12:56:00.318Z,951.9
2023-03-07T12:57:00.318Z,951
2023-03-07T12:58:00.326Z,951.4
2023-03-07T12:59:00.338Z,951.9